sensor_id;sensor_type;location;lat;lon;timestamp;pressure;altitude;pressure_sealevel;temperature;humidity
50349;BME280;36250;48.740;22.174;2023-03-03T00:00:06;100689.47;;;1.07;69.75
50349;BME280;36250;48.740;22.174;2023-03-03T00:02:32;100687.81;;;1.06;69.95
50349;BME280;36250;48.740;22.174;2023-03-03T00:04:57;100688.81;;;1.05;70.02
50349;BME280;36250;48.740;22.174;2023-03-03T00:07:22;100684.47;;;1.04;70.09
50349;BME280;36250;48.740;22.174;2023-03-03T00:09:48;100695.19;;;1.04;70.43
50349;BME280;36250;48.740;22.174;2023-03-03T00:12:20;100700.06;;;1.01;70.63
50349;BME280;36250;48.740;22.174;2023-03-03T00:14:47;100695.06;;;0.98;70.35
50349;BME280;36250;48.740;22.174;2023-03-03T00:17:42;100688.91;;;0.89;70.24
50349;BME280;36250;48.740;22.174;2023-03-03T00:20:31;100689.44;;;0.85;70.40
50349;BME280;36250;48.740;22.174;2023-03-03T00:23:08;100686.09;;;0.83;70.61
50349;BME280;36250;48.740;22.174;2023-03-03T00:25:41;100681.22;;;0.86;70.63
50349;BME280;36250;48.740;22.174;2023-03-03T00:28:19;100687.41;;;0.87;70.62
50349;BME280;36250;48.740;22.174;2023-03-03T00:30:46;100683.25;;;0.84;70.37
50349;BME280;36250;48.740;22.174;2023-03-03T00:33:23;100677.75;;;0.78;70.41
50349;BME280;36250;48.740;22.174;2023-03-03T00:35:52;100678.28;;;0.73;70.75
50349;BME280;36250;48.740;22.174;2023-03-03T00:38:18;100675.94;;;0.70;70.37
50349;BME280;36250;48.740;22.174;2023-03-03T00:40:43;100682.97;;;0.71;71.18
50349;BME280;36250;48.740;22.174;2023-03-03T00:43:30;100682.16;;;0.71;71.05
50349;BME280;36250;48.740;22.174;2023-03-03T00:45:58;100683.50;;;0.66;70.91
50349;BME280;36250;48.740;22.174;2023-03-03T00:50:58;100670.59;;;0.70;70.98
50349;BME280;36250;48.740;22.174;2023-03-03T00:53:28;100667.59;;;0.65;71.52
50349;BME280;36250;48.740;22.174;2023-03-03T00:55:54;100670.75;;;0.68;70.94
50349;BME280;36250;48.740;22.174;2023-03-03T00:58:20;100667.72;;;0.72;70.63
50349;BME280;36250;48.740;22.174;2023-03-03T01:00:51;100664.41;;;0.70;70.56
50349;BME280;36250;48.740;22.174;2023-03-03T01:03:22;100657.53;;;0.67;71.18
50349;BME280;36250;48.740;22.174;2023-03-03T01:05:48;100658.72;;;0.64;71.02
50349;BME280;36250;48.740;22.174;2023-03-03T01:08:14;100662.44;;;0.63;71.02
50349;BME280;36250;48.740;22.174;2023-03-03T01:10:47;100658.41;;;0.59;71.12
50349;BME280;36250;48.740;22.174;2023-03-03T01:13:17;100662.63;;;0.54;71.39
50349;BME280;36250;48.740;22.174;2023-03-03T01:15:44;100655.94;;;0.50;71.52
50349;BME280;36250;48.740;22.174;2023-03-03T01:18:11;100654.47;;;0.47;71.55
50349;BME280;36250;48.740;22.174;2023-03-03T01:20:37;100664.69;;;0.44;71.55
50349;BME280;36250;48.740;22.174;2023-03-03T01:23:03;100666.22;;;0.38;71.89
50349;BME280;36250;48.740;22.174;2023-03-03T01:25:28;100661.00;;;0.37;72.47
50349;BME280;36250;48.740;22.174;2023-03-03T01:27:54;100657.53;;;0.36;72.49
50349;BME280;36250;48.740;22.174;2023-03-03T01:30:20;100654.16;;;0.34;72.36
50349;BME280;36250;48.740;22.174;2023-03-03T01:32:45;100658.53;;;0.27;72.69
50349;BME280;36250;48.740;22.174;2023-03-03T01:35:11;100645.88;;;0.13;72.50
50349;BME280;36250;48.740;22.174;2023-03-03T01:37:37;100649.09;;;0.09;73.32
50349;BME280;36250;48.740;22.174;2023-03-03T01:40:05;100653.91;;;0.13;73.22
50349;BME280;36250;48.740;22.174;2023-03-03T01:42:31;100656.25;;;0.16;72.71
50349;BME280;36250;48.740;22.174;2023-03-03T01:48:05;100654.38;;;0.25;72.46
50349;BME280;36250;48.740;22.174;2023-03-03T01:50:47;100651.53;;;0.26;72.89
50349;BME280;36250;48.740;22.174;2023-03-03T01:53:20;100647.19;;;0.25;72.45
50349;BME280;36250;48.740;22.174;2023-03-03T01:55:47;100651.22;;;0.21;72.81
50349;BME280;36250;48.740;22.174;2023-03-03T01:58:35;100649.88;;;0.17;72.78
50349;BME280;36250;48.740;22.174;2023-03-03T02:01:05;100649.88;;;0.17;72.21
50349;BME280;36250;48.740;22.174;2023-03-03T02:03:32;100650.72;;;0.18;72.45
50349;BME280;36250;48.740;22.174;2023-03-03T02:06:02;100658.75;;;0.18;72.68
50349;BME280;36250;48.740;22.174;2023-03-03T02:08:40;100654.41;;;0.17;72.60
50349;BME280;36250;48.740;22.174;2023-03-03T02:11:09;100660.59;;;0.17;72.53
50349;BME280;36250;48.740;22.174;2023-03-03T02:13:35;100657.25;;;0.15;72.24
50349;BME280;36250;48.740;22.174;2023-03-03T02:16:00;100654.44;;;0.09;72.58
50349;BME280;36250;48.740;22.174;2023-03-03T02:18:26;100648.94;;;0.02;72.10
50349;BME280;36250;48.740;22.174;2023-03-03T02:23:38;100653.31;;;-0.05;72.61
50349;BME280;36250;48.740;22.174;2023-03-03T02:26:14;100647.97;;;-0.05;72.82
50349;BME280;36250;48.740;22.174;2023-03-03T02:28:40;100642.75;;;-0.07;72.81
50349;BME280;36250;48.740;22.174;2023-03-03T02:31:09;100645.63;;;-0.08;72.69
50349;BME280;36250;48.740;22.174;2023-03-03T02:33:37;100642.44;;;-0.12;72.97
50349;BME280;36250;48.740;22.174;2023-03-03T02:36:03;100637.75;;;-0.10;72.91
50349;BME280;36250;48.740;22.174;2023-03-03T02:38:58;100634.91;;;-0.08;73.01
50349;BME280;36250;48.740;22.174;2023-03-03T02:41:56;100631.91;;;-0.13;72.63
50349;BME280;36250;48.740;22.174;2023-03-03T02:44:25;100641.97;;;-0.15;73.21
50349;BME280;36250;48.740;22.174;2023-03-03T02:46:52;100631.59;;;-0.18;73.31
50349;BME280;36250;48.740;22.174;2023-03-03T02:49:20;100633.09;;;-0.24;73.55
50349;BME280;36250;48.740;22.174;2023-03-03T02:51:47;100626.91;;;-0.24;73.93
50349;BME280;36250;48.740;22.174;2023-03-03T02:54:14;100631.94;;;-0.21;73.95
50349;BME280;36250;48.740;22.174;2023-03-03T02:56:39;100634.47;;;-0.20;73.63
50349;BME280;36250;48.740;22.174;2023-03-03T02:59:05;100629.91;;;-0.19;73.74
50349;BME280;36250;48.740;22.174;2023-03-03T03:01:31;100626.59;;;-0.21;73.64
50349;BME280;36250;48.740;22.174;2023-03-03T03:04:03;100623.56;;;-0.18;73.37
50349;BME280;36250;48.740;22.174;2023-03-03T03:06:29;100622.06;;;-0.21;73.09
50349;BME280;36250;48.740;22.174;2023-03-03T03:08:55;100618.88;;;-0.24;73.31
50349;BME280;36250;48.740;22.174;2023-03-03T03:11:20;100629.94;;;-0.27;73.12
50349;BME280;36250;48.740;22.174;2023-03-03T03:13:45;100623.91;;;-0.29;72.90
50349;BME280;36250;48.740;22.174;2023-03-03T03:16:11;100616.41;;;-0.34;73.46
50349;BME280;36250;48.740;22.174;2023-03-03T03:18:36;100622.28;;;-0.38;73.03
50349;BME280;36250;48.740;22.174;2023-03-03T03:21:06;100622.97;;;-0.44;73.92
50349;BME280;36250;48.740;22.174;2023-03-03T03:23:33;100623.44;;;-0.49;74.35
50349;BME280;36250;48.740;22.174;2023-03-03T03:25:58;100613.94;;;-0.59;74.02
50349;BME280;36250;48.740;22.174;2023-03-03T03:28:24;100620.28;;;-0.60;74.64
50349;BME280;36250;48.740;22.174;2023-03-03T03:30:50;100614.09;;;-0.61;74.50
50349;BME280;36250;48.740;22.174;2023-03-03T03:33:16;100617.47;;;-0.59;74.32
50349;BME280;36250;48.740;22.174;2023-03-03T03:35:41;100610.63;;;-0.61;74.09
50349;BME280;36250;48.740;22.174;2023-03-03T03:38:10;100608.28;;;-0.64;74.24
50349;BME280;36250;48.740;22.174;2023-03-03T03:40:35;100597.41;;;-0.63;74.88
50349;BME280;36250;48.740;22.174;2023-03-03T03:43:01;100606.91;;;-0.60;74.64
50349;BME280;36250;48.740;22.174;2023-03-03T03:45:26;100604.25;;;-0.60;74.14
50349;BME280;36250;48.740;22.174;2023-03-03T03:47:51;100600.91;;;-0.62;74.56
50349;BME280;36250;48.740;22.174;2023-03-03T03:50:17;100601.75;;;-0.62;75.08
50349;BME280;36250;48.740;22.174;2023-03-03T03:52:42;100593.06;;;-0.64;74.63
50349;BME280;36250;48.740;22.174;2023-03-03T03:55:08;100592.91;;;-0.62;74.04
50349;BME280;36250;48.740;22.174;2023-03-03T03:57:33;100587.88;;;-0.66;75.09
50349;BME280;36250;48.740;22.174;2023-03-03T03:59:59;100583.88;;;-0.61;74.56
50349;BME280;36250;48.740;22.174;2023-03-03T04:02:24;100594.91;;;-0.56;74.49
50349;BME280;36250;48.740;22.174;2023-03-03T04:04:49;100590.22;;;-0.54;74.48
50349;BME280;36250;48.740;22.174;2023-03-03T04:07:15;100582.69;;;-0.51;74.93
50349;BME280;36250;48.740;22.174;2023-03-03T04:09:40;100581.16;;;-0.45;74.87
50349;BME280;36250;48.740;22.174;2023-03-03T04:12:06;100578.81;;;-0.40;74.63
50349;BME280;36250;48.740;22.174;2023-03-03T04:14:31;100573.81;;;-0.43;74.60
50349;BME280;36250;48.740;22.174;2023-03-03T04:16:57;100582.00;;;-0.45;74.91
50349;BME280;36250;48.740;22.174;2023-03-03T04:19:22;100571.97;;;-0.43;74.57
50349;BME280;36250;48.740;22.174;2023-03-03T04:21:48;100574.84;;;-0.44;74.29
50349;BME280;36250;48.740;22.174;2023-03-03T04:24:13;100579.16;;;-0.43;74.25
50349;BME280;36250;48.740;22.174;2023-03-03T04:26:38;100574.84;;;-0.44;74.47
50349;BME280;36250;48.740;22.174;2023-03-03T04:29:04;100573.16;;;-0.45;74.26
50349;BME280;36250;48.740;22.174;2023-03-03T04:31:30;100576.84;;;-0.54;74.79
50349;BME280;36250;48.740;22.174;2023-03-03T04:33:55;100573.84;;;-0.51;74.38
50349;BME280;36250;48.740;22.174;2023-03-03T04:36:20;100571.19;;;-0.59;74.71
50349;BME280;36250;48.740;22.174;2023-03-03T04:38:46;100581.22;;;-0.61;74.67
50349;BME280;36250;48.740;22.174;2023-03-03T04:41:12;100577.03;;;-0.64;74.73
50349;BME280;36250;48.740;22.174;2023-03-03T04:43:37;100571.00;;;-0.66;75.56
50349;BME280;36250;48.740;22.174;2023-03-03T04:46:03;100576.53;;;-0.68;76.22
50349;BME280;36250;48.740;22.174;2023-03-03T04:48:28;100584.06;;;-0.79;76.43
50349;BME280;36250;48.740;22.174;2023-03-03T04:50:54;100578.56;;;-0.86;76.65
50349;BME280;36250;48.740;22.174;2023-03-03T04:53:19;100578.72;;;-0.87;76.25
50349;BME280;36250;48.740;22.174;2023-03-03T04:55:45;100588.72;;;-0.89;76.39
50349;BME280;36250;48.740;22.174;2023-03-03T04:58:10;100578.22;;;-0.91;76.50
50349;BME280;36250;48.740;22.174;2023-03-03T05:00:36;100587.06;;;-0.90;76.01
50349;BME280;36250;48.740;22.174;2023-03-03T05:03:02;100576.72;;;-0.93;75.53
50349;BME280;36250;48.740;22.174;2023-03-03T05:05:27;100585.56;;;-1.01;75.92
50349;BME280;36250;48.740;22.174;2023-03-03T05:07:53;100587.22;;;-1.00;76.08
50349;BME280;36250;48.740;22.174;2023-03-03T05:10:18;100599.25;;;-0.96;75.51
50349;BME280;36250;48.740;22.174;2023-03-03T05:12:45;100597.09;;;-1.00;75.97
50349;BME280;36250;48.740;22.174;2023-03-03T05:15:10;100588.25;;;-1.01;76.11
50349;BME280;36250;48.740;22.174;2023-03-03T05:17:36;100593.41;;;-0.99;75.50
50349;BME280;36250;48.740;22.174;2023-03-03T05:20:02;100596.41;;;-0.94;75.85
50349;BME280;36250;48.740;22.174;2023-03-03T05:22:29;100603.94;;;-0.90;75.08
50349;BME280;36250;48.740;22.174;2023-03-03T05:24:55;100596.56;;;-0.88;75.75
50349;BME280;36250;48.740;22.174;2023-03-03T05:27:20;100599.75;;;-0.84;75.38
50349;BME280;36250;48.740;22.174;2023-03-03T05:29:45;100602.25;;;-0.83;74.71
50349;BME280;36250;48.740;22.174;2023-03-03T05:32:11;100600.41;;;-0.82;74.66
50349;BME280;36250;48.740;22.174;2023-03-03T05:34:36;100595.06;;;-0.82;74.86
50349;BME280;36250;48.740;22.174;2023-03-03T05:37:01;100610.25;;;-0.83;74.93
50349;BME280;36250;48.740;22.174;2023-03-03T05:39:28;100611.44;;;-0.85;75.03
50349;BME280;36250;48.740;22.174;2023-03-03T05:41:53;100608.75;;;-0.85;75.03
50349;BME280;36250;48.740;22.174;2023-03-03T05:44:20;100617.63;;;-0.85;75.16
50349;BME280;36250;48.740;22.174;2023-03-03T05:46:45;100609.44;;;-0.83;75.23
50349;BME280;36250;48.740;22.174;2023-03-03T05:49:10;100614.44;;;-0.80;75.34
50349;BME280;36250;48.740;22.174;2023-03-03T05:51:36;100613.78;;;-0.74;75.40
50349;BME280;36250;48.740;22.174;2023-03-03T05:54:01;100622.16;;;-0.69;74.85
50349;BME280;36250;48.740;22.174;2023-03-03T05:56:26;100618.97;;;-0.64;74.73
50349;BME280;36250;48.740;22.174;2023-03-03T05:58:52;100623.13;;;-0.62;75.04
50349;BME280;36250;48.740;22.174;2023-03-03T06:01:17;100611.28;;;-0.59;75.17
50349;BME280;36250;48.740;22.174;2023-03-03T06:03:42;100628.50;;;-0.54;75.24
50349;BME280;36250;48.740;22.174;2023-03-03T06:06:08;100623.63;;;-0.50;75.25
50349;BME280;36250;48.740;22.174;2023-03-03T06:08:33;100624.28;;;-0.48;74.78
50349;BME280;36250;48.740;22.174;2023-03-03T06:10:59;100623.63;;;-0.42;74.46
50349;BME280;36250;48.740;22.174;2023-03-03T06:13:24;100622.25;;;-0.30;74.68
50349;BME280;36250;48.740;22.174;2023-03-03T06:15:49;100625.75;;;-0.22;74.82
50349;BME280;36250;48.740;22.174;2023-03-03T06:18:15;100620.19;;;-0.12;74.45
50349;BME280;36250;48.740;22.174;2023-03-03T06:20:40;100620.19;;;-0.04;74.77
50349;BME280;36250;48.740;22.174;2023-03-03T06:23:06;100626.69;;;0.02;74.35
50349;BME280;36250;48.740;22.174;2023-03-03T06:25:31;100625.66;;;0.11;74.66
50349;BME280;36250;48.740;22.174;2023-03-03T06:27:59;100629.16;;;0.19;74.24
50349;BME280;36250;48.740;22.174;2023-03-03T06:30:25;100629.59;;;0.31;73.67
50349;BME280;36250;48.740;22.174;2023-03-03T06:32:52;100628.22;;;0.43;73.93
50349;BME280;36250;48.740;22.174;2023-03-03T06:35:17;100626.63;;;0.56;74.31
50349;BME280;36250;48.740;22.174;2023-03-03T06:37:43;100620.88;;;0.68;74.38
50349;BME280;36250;48.740;22.174;2023-03-03T06:40:09;100619.47;;;0.80;73.87
50349;BME280;36250;48.740;22.174;2023-03-03T06:42:34;100618.69;;;0.94;73.49
50349;BME280;36250;48.740;22.174;2023-03-03T06:44:59;100612.75;;;1.06;73.50
50349;BME280;36250;48.740;22.174;2023-03-03T06:47:25;100610.13;;;1.21;73.07
50349;BME280;36250;48.740;22.174;2023-03-03T06:49:50;100617.38;;;1.35;72.79
50349;BME280;36250;48.740;22.174;2023-03-03T06:52:22;100625.66;;;1.48;72.16
50349;BME280;36250;48.740;22.174;2023-03-03T06:54:50;100619.19;;;1.57;71.91
50349;BME280;36250;48.740;22.174;2023-03-03T06:57:29;100627.44;;;1.70;72.09
50349;BME280;36250;48.740;22.174;2023-03-03T07:00:12;100637.91;;;1.80;72.45
50349;BME280;36250;48.740;22.174;2023-03-03T07:02:39;100630.88;;;1.79;72.35
50349;BME280;36250;48.740;22.174;2023-03-03T07:05:12;100633.41;;;1.80;72.37
50349;BME280;36250;48.740;22.174;2023-03-03T07:07:38;100634.41;;;1.79;72.96
50349;BME280;36250;48.740;22.174;2023-03-03T07:10:25;100628.59;;;1.90;72.57
50349;BME280;36250;48.740;22.174;2023-03-03T07:12:51;100628.22;;;1.93;72.02
50349;BME280;36250;48.740;22.174;2023-03-03T07:15:22;100630.25;;;2.06;72.49
50349;BME280;36250;48.740;22.174;2023-03-03T07:17:52;100627.47;;;2.14;72.05
50349;BME280;36250;48.740;22.174;2023-03-03T07:20:38;100636.75;;;2.26;71.96
50349;BME280;36250;48.740;22.174;2023-03-03T07:23:20;100625.97;;;2.41;71.63
50349;BME280;36250;48.740;22.174;2023-03-03T07:25:47;100621.44;;;2.41;70.84
50349;BME280;36250;48.740;22.174;2023-03-03T07:30:37;100620.78;;;2.54;70.52
50349;BME280;36250;48.740;22.174;2023-03-03T07:33:04;100629.13;;;2.59;71.18
50349;BME280;36250;48.740;22.174;2023-03-03T07:35:43;100630.41;;;2.63;71.28
50349;BME280;36250;48.740;22.174;2023-03-03T07:38:24;100626.31;;;2.67;70.91
50349;BME280;36250;48.740;22.174;2023-03-03T07:40:56;100626.19;;;2.75;70.88
50349;BME280;36250;48.740;22.174;2023-03-03T07:43:38;100623.00;;;2.86;70.10
50349;BME280;36250;48.740;22.174;2023-03-03T07:48:40;100627.19;;;3.10;70.56
50349;BME280;36250;48.740;22.174;2023-03-03T07:51:19;100623.81;;;3.22;69.88
50349;BME280;36250;48.740;22.174;2023-03-03T07:53:47;100617.00;;;3.26;69.07
50349;BME280;36250;48.740;22.174;2023-03-03T07:58:43;100622.00;;;3.51;67.32
50349;BME280;36250;48.740;22.174;2023-03-03T08:01:40;100619.41;;;3.64;68.36
50349;BME280;36250;48.740;22.174;2023-03-03T08:04:15;100617.84;;;3.76;68.33
50349;BME280;36250;48.740;22.174;2023-03-03T08:06:46;100611.72;;;3.88;67.34
50349;BME280;36250;48.740;22.174;2023-03-03T08:11:52;100614.34;;;4.10;67.58
50349;BME280;36250;48.740;22.174;2023-03-03T08:14:34;100615.69;;;4.27;66.46
50349;BME280;36250;48.740;22.174;2023-03-03T08:17:00;100617.38;;;4.34;65.18
50349;BME280;36250;48.740;22.174;2023-03-03T08:19:27;100617.00;;;4.37;64.78
50349;BME280;36250;48.740;22.174;2023-03-03T08:22:11;100610.78;;;4.43;65.12
50349;BME280;36250;48.740;22.174;2023-03-03T08:24:38;100610.38;;;4.46;64.57
50349;BME280;36250;48.740;22.174;2023-03-03T08:27:03;100609.41;;;4.60;65.03
50349;BME280;36250;48.740;22.174;2023-03-03T08:29:28;100611.94;;;4.75;64.53
50349;BME280;36250;48.740;22.174;2023-03-03T08:31:53;100615.09;;;4.79;64.74
50349;BME280;36250;48.740;22.174;2023-03-03T08:34:19;100613.47;;;4.91;65.06
50349;BME280;36250;48.740;22.174;2023-03-03T08:36:44;100619.69;;;4.98;64.06
50349;BME280;36250;48.740;22.174;2023-03-03T08:39:11;100614.53;;;5.09;63.79
50349;BME280;36250;48.740;22.174;2023-03-03T08:41:37;100618.09;;;5.23;63.69
50349;BME280;36250;48.740;22.174;2023-03-03T08:44:05;100614.56;;;5.36;63.74
50349;BME280;36250;48.740;22.174;2023-03-03T08:46:30;100624.31;;;5.43;63.21
50349;BME280;36250;48.740;22.174;2023-03-03T08:48:56;100627.25;;;5.42;62.72
50349;BME280;36250;48.740;22.174;2023-03-03T08:51:21;100624.75;;;5.40;62.64
50349;BME280;36250;48.740;22.174;2023-03-03T08:53:46;100618.13;;;5.49;61.21
50349;BME280;36250;48.740;22.174;2023-03-03T08:56:12;100614.59;;;5.42;61.40
50349;BME280;36250;48.740;22.174;2023-03-03T08:58:37;100615.81;;;5.53;62.90
50349;BME280;36250;48.740;22.174;2023-03-03T09:01:04;100611.88;;;5.75;63.78
50349;BME280;36250;48.740;22.174;2023-03-03T09:03:29;100607.34;;;5.88;63.49
50349;BME280;36250;48.740;22.174;2023-03-03T09:05:54;100607.28;;;6.02;62.09
50349;BME280;36250;48.740;22.174;2023-03-03T09:08:20;100603.53;;;6.16;61.12
50349;BME280;36250;48.740;22.174;2023-03-03T09:10:45;100604.75;;;6.33;60.19
50349;BME280;36250;48.740;22.174;2023-03-03T09:13:15;100603.28;;;6.24;58.89
50349;BME280;36250;48.740;22.174;2023-03-03T09:15:41;100604.94;;;6.31;60.38
50349;BME280;36250;48.740;22.174;2023-03-03T09:18:20;100594.66;;;6.53;60.19
50349;BME280;36250;48.740;22.174;2023-03-03T09:20:53;100598.81;;;6.62;57.14
50349;BME280;36250;48.740;22.174;2023-03-03T09:23:42;100592.94;;;6.72;58.50
50349;BME280;36250;48.740;22.174;2023-03-03T09:26:25;100596.97;;;6.94;58.22
50349;BME280;36250;48.740;22.174;2023-03-03T09:34:13;100582.31;;;7.64;57.32
50349;BME280;36250;48.740;22.174;2023-03-03T09:36:40;100593.75;;;7.66;56.35
50349;BME280;36250;48.740;22.174;2023-03-03T09:39:20;100588.38;;;7.84;55.71
50349;BME280;36250;48.740;22.174;2023-03-03T09:42:18;100591.00;;;7.90;56.01
50349;BME280;36250;48.740;22.174;2023-03-03T09:51:01;100575.19;;;8.48;55.97
50349;BME280;36250;48.740;22.174;2023-03-03T10:12:28;100556.59;;;9.23;48.97
50349;BME280;36250;48.740;22.174;2023-03-03T10:20:56;100545.31;;;9.72;48.81
50349;BME280;36250;48.740;22.174;2023-03-03T10:52:54;100542.75;;;10.12;45.42
50349;BME280;36250;48.740;22.174;2023-03-03T10:55:33;100545.06;;;10.09;47.38
50349;BME280;36250;48.740;22.174;2023-03-03T11:06:41;100525.25;;;10.48;43.08
50349;BME280;36250;48.740;22.174;2023-03-03T11:09:26;100529.34;;;10.62;43.33
50349;BME280;36250;48.740;22.174;2023-03-03T11:14:41;100525.50;;;10.46;44.39
50349;BME280;36250;48.740;22.174;2023-03-03T11:22:55;100530.00;;;10.69;43.95
50349;BME280;36250;48.740;22.174;2023-03-03T11:28:30;100516.31;;;10.92;43.36
50349;BME280;36250;48.740;22.174;2023-03-03T11:31:14;100520.75;;;10.98;41.80
50349;BME280;36250;48.740;22.174;2023-03-03T11:33:56;100512.50;;;10.93;42.29
50349;BME280;36250;48.740;22.174;2023-03-03T11:39:07;100502.81;;;10.86;41.80
50349;BME280;36250;48.740;22.174;2023-03-03T11:41:58;100500.09;;;10.86;41.64
50349;BME280;36250;48.740;22.174;2023-03-03T11:44:36;100492.16;;;11.12;41.62
50349;BME280;36250;48.740;22.174;2023-03-03T11:47:19;100499.91;;;11.20;39.25
50349;BME280;36250;48.740;22.174;2023-03-03T11:50:08;100494.25;;;10.77;40.02
50349;BME280;36250;48.740;22.174;2023-03-03T11:53:14;100500.63;;;10.83;40.83
50349;BME280;36250;48.740;22.174;2023-03-03T11:55:38;100502.66;;;10.76;39.86
50349;BME280;36250;48.740;22.174;2023-03-03T11:58:28;100495.72;;;10.68;41.73
50349;BME280;36250;48.740;22.174;2023-03-03T12:04:03;100495.41;;;10.53;42.68
50349;BME280;36250;48.740;22.174;2023-03-03T12:06:39;100501.34;;;10.50;42.39
50349;BME280;36250;48.740;22.174;2023-03-03T12:20:14;100504.88;;;9.76;42.88
50349;BME280;36250;48.740;22.174;2023-03-03T12:25:42;100492.50;;;9.80;41.01
50349;BME280;36250;48.740;22.174;2023-03-03T12:28:24;100487.03;;;9.91;40.05
50349;BME280;36250;48.740;22.174;2023-03-03T12:33:56;100500.13;;;10.18;40.25
50349;BME280;36250;48.740;22.174;2023-03-03T12:47:59;100467.47;;;18.52;26.72
50349;BME280;36250;48.740;22.174;2023-03-03T12:59:08;100484.41;;;13.43;33.06
50349;BME280;36250;48.740;22.174;2023-03-03T13:04:52;100469.53;;;15.09;30.10
50349;BME280;36250;48.740;22.174;2023-03-03T13:07:30;100469.09;;;16.81;27.59
50349;BME280;36250;48.740;22.174;2023-03-03T13:10:02;100449.69;;;19.33;24.34
50349;BME280;36250;48.740;22.174;2023-03-03T13:15:08;100461.53;;;19.52;22.21
50349;BME280;36250;48.740;22.174;2023-03-03T13:17:47;100456.44;;;19.59;23.03
50349;BME280;36250;48.740;22.174;2023-03-03T13:25:40;100455.28;;;18.11;23.82
50349;BME280;36250;48.740;22.174;2023-03-03T13:28:29;100454.69;;;17.90;23.50
50349;BME280;36250;48.740;22.174;2023-03-03T13:31:16;100461.22;;;17.42;24.87
50349;BME280;36250;48.740;22.174;2023-03-03T13:33:51;100454.91;;;16.00;25.43
50349;BME280;36250;48.740;22.174;2023-03-03T13:36:18;100468.66;;;14.07;29.03
50349;BME280;36250;48.740;22.174;2023-03-03T13:38:49;100460.03;;;12.78;30.56
50349;BME280;36250;48.740;22.174;2023-03-03T13:41:29;100459.47;;;12.76;30.29
50349;BME280;36250;48.740;22.174;2023-03-03T13:44:01;100453.09;;;14.12;30.04
50349;BME280;36250;48.740;22.174;2023-03-03T14:03:25;100447.91;;;12.95;30.44
50349;BME280;36250;48.740;22.174;2023-03-03T14:05:57;100439.78;;;13.00;30.69
50349;BME280;36250;48.740;22.174;2023-03-03T14:14:32;100439.31;;;16.49;25.80
50349;BME280;36250;48.740;22.174;2023-03-03T14:17:06;100438.41;;;16.05;25.59
50349;BME280;36250;48.740;22.174;2023-03-03T14:19:43;100448.03;;;16.02;26.29
50349;BME280;36250;48.740;22.174;2023-03-03T14:22:14;100447.31;;;15.66;27.36
50349;BME280;36250;48.740;22.174;2023-03-03T14:27:26;100445.25;;;16.07;26.65
50349;BME280;36250;48.740;22.174;2023-03-03T14:29:51;100435.41;;;16.06;26.79
50349;BME280;36250;48.740;22.174;2023-03-03T14:32:25;100446.31;;;16.16;26.66
50349;BME280;36250;48.740;22.174;2023-03-03T14:34:58;100432.53;;;16.26;26.64
50349;BME280;36250;48.740;22.174;2023-03-03T14:37:43;100430.47;;;16.62;26.45
50349;BME280;36250;48.740;22.174;2023-03-03T14:40:21;100428.66;;;17.20;25.70
50349;BME280;36250;48.740;22.174;2023-03-03T14:42:55;100429.72;;;18.05;25.72
50349;BME280;36250;48.740;22.174;2023-03-03T14:45:35;100422.81;;;18.08;24.26
50349;BME280;36250;48.740;22.174;2023-03-03T14:48:19;100428.84;;;16.95;25.39
50349;BME280;36250;48.740;22.174;2023-03-03T14:50:49;100428.41;;;16.83;24.95
50349;BME280;36250;48.740;22.174;2023-03-03T14:55:45;100428.31;;;15.80;25.84
50349;BME280;36250;48.740;22.174;2023-03-03T14:58:35;100424.53;;;15.61;27.17
50349;BME280;36250;48.740;22.174;2023-03-03T15:03:34;100425.66;;;15.55;26.89
50349;BME280;36250;48.740;22.174;2023-03-03T15:06:10;100428.09;;;15.41;27.59
50349;BME280;36250;48.740;22.174;2023-03-03T15:08:39;100424.81;;;15.44;28.51
50349;BME280;36250;48.740;22.174;2023-03-03T15:13:43;100425.66;;;15.30;28.71
50349;BME280;36250;48.740;22.174;2023-03-03T15:16:14;100427.88;;;15.18;27.98
50349;BME280;36250;48.740;22.174;2023-03-03T15:24:52;100430.19;;;13.71;30.22
50349;BME280;36250;48.740;22.174;2023-03-03T15:27:39;100429.06;;;12.99;31.46
50349;BME280;36250;48.740;22.174;2023-03-03T15:33:22;100435.56;;;10.86;35.43
50349;BME280;36250;48.740;22.174;2023-03-03T15:35:53;100437.72;;;10.00;38.15
50349;BME280;36250;48.740;22.174;2023-03-03T15:38:44;100436.03;;;9.47;39.25
50349;BME280;36250;48.740;22.174;2023-03-03T15:43:55;100453.59;;;9.10;41.16
50349;BME280;36250;48.740;22.174;2023-03-03T15:52:28;100453.88;;;8.67;42.54
50349;BME280;36250;48.740;22.174;2023-03-03T15:58:11;100452.97;;;8.25;43.04
50349;BME280;36250;48.740;22.174;2023-03-03T16:01:17;100458.16;;;7.97;43.42
50349;BME280;36250;48.740;22.174;2023-03-03T16:03:43;100465.38;;;7.67;44.29
50349;BME280;36250;48.740;22.174;2023-03-03T16:06:27;100466.25;;;7.43;44.80
50349;BME280;36250;48.740;22.174;2023-03-03T16:11:44;100477.94;;;7.18;44.61
50349;BME280;36250;48.740;22.174;2023-03-03T16:20:17;100493.25;;;7.00;45.68
50349;BME280;36250;48.740;22.174;2023-03-03T16:23:09;100497.94;;;6.86;46.16
50349;BME280;36250;48.740;22.174;2023-03-03T16:29:02;100506.06;;;6.55;46.42
50349;BME280;36250;48.740;22.174;2023-03-03T16:42:19;100507.31;;;6.02;50.10
50349;BME280;36250;48.740;22.174;2023-03-03T16:50:49;100526.25;;;5.95;49.85
50349;BME280;36250;48.740;22.174;2023-03-03T16:53:53;100519.41;;;5.99;49.46
50349;BME280;36250;48.740;22.174;2023-03-03T17:04:45;100528.09;;;6.08;47.54
50349;BME280;36250;48.740;22.174;2023-03-03T17:10:14;100521.84;;;6.07;47.24
50349;BME280;36250;48.740;22.174;2023-03-03T17:15:38;100526.88;;;6.04;46.29
50349;BME280;36250;48.740;22.174;2023-03-03T17:21:01;100533.13;;;5.97;46.36